Time;durP1;ratioP1;P1;durP2;ratioP2;P2;SDS_P1;SDS_P2;PMS_P1;PMS_P2;Temp;Humidity;BMP_temperature;BMP_pressure;BME280_temperature;BME280_humidity;BME280_pressure;Samples;Min_cycle;Max_cycle;Signal;HPM_P1;HPM_P2
2022/07/03 00:01:23;;;;;;;;;;;;;;;;;;5103138;28;837;-63
2022/07/03 00:03:48;;;;;;;;;;;;;;;;;;5102486;28;1893;-63
2022/07/03 00:06:13;;;;;;;;;;;;;;;;;;5102435;28;1191;-63
2022/07/03 00:08:39;;;;;;;;;;;;;;;;;;5102316;28;809;-63
2022/07/03 00:11:07;;;;;;;;;;;;;;;;;;5102675;28;933;-63
2022/07/03 00:13:32;;;;;;;;;;;;;;;;;;5102475;28;905;-63
2022/07/03 00:15:57;;;;;;;;;;;;;;;;;;5102507;28;866;-63
2022/07/03 00:18:22;;;;;;;;;;;;;;;;;;5101946;28;1203;-63
2022/07/03 00:20:49;;;;;;;;;;;;;;;;;;5102390;28;822;-63
2022/07/03 00:23:17;;;;;;;;;;;;;;;;;;5102503;28;957;-63
2022/07/03 00:25:43;;;;;;;;;;;;;;;;;;5102157;28;1959;-64
2022/07/03 00:28:08;;;;;;;;;;;;;;;;;;5102257;28;1275;-63
2022/07/03 00:30:34;;;;;;;;;;;;;;;;;;5101207;28;786;-64
2022/07/03 00:33:01;;;;;;;;;;;;;;;;;;5102340;28;949;-64
2022/07/03 00:35:26;;;;;;;;;;;;;;;;;;5101939;28;818;-64
2022/07/03 00:37:51;;;;;;;;;;;;;;;;;;5101937;28;1291;-64
2022/07/03 00:40:17;;;;;;;;;;;;;;;;;;5101941;28;783;-64
2022/07/03 00:42:43;;;;;;;;;;;;;;;;;;5102213;28;877;-63
2022/07/03 00:45:09;;;;;;;;;;;;;;;;;;5101903;28;1966;-63
2022/07/03 00:47:35;;;;;;;;;;;;;;;;;;5101775;28;1133;-63
2022/07/03 00:50:05;;;;;;;;;;;;;;;;;;5101884;28;949;-63
2022/07/03 00:52:30;;;;;;;;;;;;;;;;;;5101946;28;843;-64
2022/07/03 00:54:57;;;;;;;;;;;;;;;;;;5102008;28;893;-63
2022/07/03 00:57:23;;;;;;;;;;;;;;;;;;5101649;28;1223;-63
2022/07/03 00:59:49;;;;;;;;;;;;;;;;;;5101756;28;814;-63
2022/07/03 01:02:27;;;;;;;;;;;;;;;;;;5101566;28;988;-63
2022/07/03 01:04:58;;;;;;;;;;;;;;;;;;5101870;28;1984;-63
2022/07/03 01:07:41;;;;;;;;;;;;;;;;;;5101342;28;1171;-63
2022/07/03 01:10:12;;;;;;;;;;;;;;;;;;5101680;28;806;-63
2022/07/03 01:12:43;;;;;;;;;;;;;;;;;;5101454;28;932;-64
2022/07/03 01:15:12;;;;;;;;;;;;;;;;;;5101690;28;866;-63
2022/07/03 01:17:39;;;;;;;;;;;;;;;;;;5101355;28;1191;-64
2022/07/03 01:20:04;;;;;;;;;;;;;;;;;;5100272;28;887;-63
2022/07/03 01:22:30;;;;;;;;;;;;;;;;;;5101400;28;850;-63
2022/07/03 01:24:59;;;;;;;;;;;;;;;;;;5101626;28;1967;-63
2022/07/03 01:27:28;;;;;;;;;;;;;;;;;;5100982;28;1179;-63
2022/07/03 01:29:56;;;;;;;;;;;;;;;;;;5101684;28;921;-63
2022/07/03 01:32:24;;;;;;;;;;;;;;;;;;5101452;28;825;-65
2022/07/03 01:34:51;;;;;;;;;;;;;;;;;;5101213;28;861;-63
2022/07/03 01:37:19;;;;;;;;;;;;;;;;;;5101202;28;1223;-64
2022/07/03 01:39:46;;;;;;;;;;;;;;;;;;5101154;28;885;-63
2022/07/03 01:42:12;;;;;;;;;;;;;;;;;;5101200;28;794;-63
2022/07/03 01:44:39;;;;;;;;;;;;;;;;;;5104937;28;1948;-63
2022/07/03 01:47:05;;;;;;;;;;;;;;;;;;5104586;28;1285;-63
2022/07/03 01:49:30;;;;;;;;;;;;;;;;;;5104703;28;908;-63
2022/07/03 01:51:56;;;;;;;;;;;;;;;;;;5104841;28;1128;-63
2022/07/03 01:54:24;;;;;;;;;;;;;;;;;;5104667;28;885;-63
2022/07/03 01:56:49;;;;;;;;;;;;;;;;;;5104435;28;1271;-63
2022/07/03 01:59:14;;;;;;;;;;;;;;;;;;5104572;28;937;-63
2022/07/03 02:02:04;;;;;;;;;;;;;;;;;;5104586;28;893;-63
2022/07/03 02:04:33;;;;;;;;;;;;;;;;;;5103287;28;1914;-64
2022/07/03 02:07:04;;;;;;;;;;;;;;;;;;5104296;28;1187;-63
2022/07/03 02:09:36;;;;;;;;;;;;;;;;;;5104569;28;790;-63
2022/07/03 02:12:01;;;;;;;;;;;;;;;;;;5104399;28;884;-64
2022/07/03 02:14:35;;;;;;;;;;;;;;;;;;5104591;28;806;-63
2022/07/03 02:17:16;;;;;;;;;;;;;;;;;;5104083;28;1187;-63
2022/07/03 02:19:56;;;;;;;;;;;;;;;;;;5104445;28;798;-63
2022/07/03 02:22:31;;;;;;;;;;;;;;;;;;5104223;28;829;-64
2022/07/03 02:25:03;;;;;;;;;;;;;;;;;;5104392;28;1897;-64
2022/07/03 02:27:30;;;;;;;;;;;;;;;;;;5103700;28;1348;-64
2022/07/03 02:30:04;;;;;;;;;;;;;;;;;;5104137;28;844;-64
2022/07/03 02:32:32;;;;;;;;;;;;;;;;;;5103960;28;1132;-64
2022/07/03 02:35:04;;;;;;;;;;;;;;;;;;5103627;28;817;-64
2022/07/03 02:37:31;;;;;;;;;;;;;;;;;;5102892;28;1317;-64
2022/07/03 02:40:04;;;;;;;;;;;;;;;;;;5103049;28;996;-64
2022/07/03 02:42:32;;;;;;;;;;;;;;;;;;5102779;28;966;-64
2022/07/03 02:45:00;;;;;;;;;;;;;;;;;;5102893;28;1965;-64
2022/07/03 02:47:27;;;;;;;;;;;;;;;;;;5102390;28;1282;-64
2022/07/03 02:49:58;;;;;;;;;;;;;;;;;;5102774;28;842;-64
2022/07/03 02:52:42;;;;;;;;;;;;;;;;;;5102455;28;924;-64
2022/07/03 02:55:20;;;;;;;;;;;;;;;;;;5102791;28;826;-63
2022/07/03 02:57:51;;;;;;;;;;;;;;;;;;5102403;28;1211;-64
2022/07/03 03:00:16;;;;;;;;;;;;;;;;;;5098694;28;1031;-64
2022/07/03 03:02:55;;;;;;;;;;;;;;;;;;5082303;28;870;-64
2022/07/03 03:05:23;;;;;;;;;;;;;;;;;;5082089;28;1971;-64
2022/07/03 03:07:48;;;;;;;;;;;;;;;;;;5081942;28;1258;-64
2022/07/03 03:10:18;;;;;;;;;;;;;;;;;;5081887;28;870;-64
2022/07/03 03:12:46;;;;;;;;;;;;;;;;;;5082172;28;922;-64
2022/07/03 03:15:12;;;;;;;;;;;;;;;;;;5081918;28;1211;-64
2022/07/03 03:17:49;;;;;;;;;;;;;;;;;;5081933;28;1183;-64
2022/07/03 03:20:18;;;;;;;;;;;;;;;;;;5081845;28;1063;-64
2022/07/03 03:22:58;;;;;;;;;;;;;;;;;;5082115;28;931;-64
2022/07/03 03:25:24;;;;;;;;;;;;;;;;;;5081682;28;1897;-64
2022/07/03 03:27:49;;;;;;;;;;;;;;;;;;5081594;28;1211;-64
2022/07/03 03:30:14;;;;;;;;;;;;;;;;;;5081481;28;838;-64
2022/07/03 03:32:40;;;;;;;;;;;;;;;;;;5081758;28;802;-64
2022/07/03 03:35:05;;;;;;;;;;;;;;;;;;5045692;28;1041428;-64
2022/07/03 03:37:31;;;;;;;;;;;;;;;;;;5082723;28;1302;-64
2022/07/03 03:39:57;;;;;;;;;;;;;;;;;;5082821;28;845;-64
2022/07/03 03:42:22;;;;;;;;;;;;;;;;;;5082698;28;983;-65
2022/07/03 03:44:47;;;;;;;;;;;;;;;;;;5082698;28;1976;-64
2022/07/03 03:47:12;;;;;;;;;;;;;;;;;;5082380;28;1199;-64
2022/07/03 03:49:37;;;;;;;;;;;;;;;;;;5082969;28;807;-64
2022/07/03 03:52:03;;;;;;;;;;;;;;;;;;5082088;28;960;-64
2022/07/03 03:54:28;;;;;;;;;;;;;;;;;;5082739;28;901;-64
2022/07/03 03:56:53;;;;;;;;;;;;;;;;;;5082194;28;1275;-64
2022/07/03 03:59:18;;;;;;;;;;;;;;;;;;5082583;28;968;-64
2022/07/03 04:01:45;;;;;;;;;;;;;;;;;;5082401;28;873;-64
2022/07/03 04:04:12;;;;;;;;;;;;;;;;;;5081919;28;1961;-64
2022/07/03 04:06:37;;;;;;;;;;;;;;;;;;5081680;28;1220;-64
2022/07/03 04:09:02;;;;;;;;;;;;;;;;;;5082357;28;889;-64
2022/07/03 04:11:27;;;;;;;;;;;;;;;;;;5082389;28;842;-64
2022/07/03 04:13:53;;;;;;;;;;;;;;;;;;5082166;28;1071;-64
2022/07/03 04:16:18;;;;;;;;;;;;;;;;;;5081989;28;1246;-64
2022/07/03 04:18:43;;;;;;;;;;;;;;;;;;5082329;28;794;-64
2022/07/03 04:21:08;;;;;;;;;;;;;;;;;;5082158;28;968;-64
2022/07/03 04:23:33;;;;;;;;;;;;;;;;;;5081991;28;1890;-64
2022/07/03 04:26:05;;;;;;;;;;;;;;;;;;5082404;28;853;-64
2022/07/03 04:28:30;;;;;;;;;;;;;;;;;;5081707;28;841;-64
2022/07/03 04:30:55;;;;;;;;;;;;;;;;;;5082233;28;806;-64
2022/07/03 04:33:20;;;;;;;;;;;;;;;;;;5082151;28;806;-64
2022/07/03 04:35:46;;;;;;;;;;;;;;;;;;5081953;28;1008;-64
2022/07/03 04:38:11;;;;;;;;;;;;;;;;;;5081627;28;1262;-64
2022/07/03 04:40:36;;;;;;;;;;;;;;;;;;5081756;28;779;-64
2022/07/03 04:43:01;;;;;;;;;;;;;;;;;;5081726;28;885;-64
2022/07/03 04:45:26;;;;;;;;;;;;;;;;;;5081496;28;1982;-64
2022/07/03 04:47:52;;;;;;;;;;;;;;;;;;5081684;28;1179;-64
2022/07/03 04:50:17;;;;;;;;;;;;;;;;;;5081556;28;996;-65
2022/07/03 04:52:42;;;;;;;;;;;;;;;;;;5097534;28;1052;-65
2022/07/03 04:55:09;;;;;;;;;;;;;;;;;;5100487;28;1281;-62
2022/07/03 04:57:34;;;;;;;;;;;;;;;;;;5101826;28;1203;-64
2022/07/03 05:00:00;;;;;;;;;;;;;;;;;;5101928;28;961;-64
2022/07/03 05:02:25;;;;;;;;;;;;;;;;;;5101777;28;1064;-64
2022/07/03 05:04:50;;;;;;;;;;;;;;;;;;5101806;28;1889;-64
2022/07/03 05:07:15;;;;;;;;;;;;;;;;;;5101449;28;1298;-63
2022/07/03 05:09:40;;;;;;;;;;;;;;;;;;5101822;28;881;-63
2022/07/03 05:12:06;;;;;;;;;;;;;;;;;;5101545;28;999;-63
2022/07/03 05:14:31;;;;;;;;;;;;;;;;;;5101842;28;1282;-63
2022/07/03 05:16:56;;;;;;;;;;;;;;;;;;5101052;28;1167;-63
2022/07/03 05:19:21;;;;;;;;;;;;;;;;;;5101782;28;948;-64
2022/07/03 05:21:47;;;;;;;;;;;;;;;;;;5101448;28;806;-63
2022/07/03 05:24:12;;;;;;;;;;;;;;;;;;5101537;28;1902;-64
2022/07/03 05:26:37;;;;;;;;;;;;;;;;;;5100961;28;1210;-63
2022/07/03 05:29:02;;;;;;;;;;;;;;;;;;5101746;28;1011;-63
2022/07/03 05:31:27;;;;;;;;;;;;;;;;;;5101222;28;889;-63
2022/07/03 05:33:53;;;;;;;;;;;;;;;;;;5101430;28;921;-63
2022/07/03 05:36:18;;;;;;;;;;;;;;;;;;5101252;28;1334;-63
2022/07/03 05:41:27;;;;;;;;;;;;;;;;;;5101244;28;632;-63
2022/07/03 05:43:52;;;;;;;;;;;;;;;;;;5101096;28;1910;-64
2022/07/03 05:46:17;;;;;;;;;;;;;;;;;;5101201;28;1282;-63
2022/07/03 05:48:43;;;;;;;;;;;;;;;;;;5101212;28;857;-64
2022/07/03 05:51:08;;;;;;;;;;;;;;;;;;5101305;28;826;-64
2022/07/03 05:53:33;;;;;;;;;;;;;;;;;;5101024;28;881;-64
2022/07/03 05:55:58;;;;;;;;;;;;;;;;;;5101124;28;791;-63
2022/07/03 05:58:24;;;;;;;;;;;;;;;;;;5100651;28;1176;-64
2022/07/03 06:00:49;;;;;;;;;;;;;;;;;;5101151;28;948;-63
2022/07/03 06:03:14;;;;;;;;;;;;;;;;;;5100981;28;1012;-63
2022/07/03 06:05:39;;;;;;;;;;;;;;;;;;5100889;28;1961;-64
2022/07/03 06:08:05;;;;;;;;;;;;;;;;;;5100869;28;1267;-64
2022/07/03 06:10:30;;;;;;;;;;;;;;;;;;5100805;28;830;-64
2022/07/03 06:12:55;;;;;;;;;;;;;;;;;;5101013;28;771;-64
2022/07/03 06:15:21;;;;;;;;;;;;;;;;;;5100770;28;925;-64
2022/07/03 06:17:47;;;;;;;;;;;;;;;;;;5100723;28;1278;-64
2022/07/03 06:20:12;;;;;;;;;;;;;;;;;;5100727;28;782;-64
2022/07/03 06:22:37;;;;;;;;;;;;;;;;;;5101019;28;845;-64
2022/07/03 06:25:03;;;;;;;;;;;;;;;;;;5099205;28;1893;-64
2022/07/03 06:27:28;;;;;;;;;;;;;;;;;;5099624;28;1171;-64
2022/07/03 06:29:54;;;;;;;;;;;;;;;;;;5104178;28;798;-64
2022/07/03 06:32:19;;;;;;;;;;;;;;;;;;5104394;28;795;-63
2022/07/03 06:34:44;;;;;;;;;;;;;;;;;;5104273;28;854;-64
2022/07/03 06:37:09;;;;;;;;;;;;;;;;;;5103644;28;1191;-64
2022/07/03 06:39:35;;;;;;;;;;;;;;;;;;5104182;28;952;-64
2022/07/03 06:42:00;;;;;;;;;;;;;;;;;;5102463;28;910;-64
2022/07/03 06:44:25;;;;;;;;;;;;;;;;;;5104064;28;1898;-64
2022/07/03 06:46:50;;;;;;;;;;;;;;;;;;5103453;28;1330;-64
2022/07/03 06:49:15;;;;;;;;;;;;;;;;;;5104245;28;834;-64
2022/07/03 06:51:41;;;;;;;;;;;;;;;;;;5103914;28;997;-63
2022/07/03 06:54:06;;;;;;;;;;;;;;;;;;5103878;28;894;-64
2022/07/03 06:56:31;;;;;;;;;;;;;;;;;;5103229;28;1278;-64
2022/07/03 06:58:56;;;;;;;;;;;;;;;;;;5103929;28;802;-64
2022/07/03 07:01:21;;;;;;;;;;;;;;;;;;5104009;28;790;-64
2022/07/03 07:03:47;;;;;;;;;;;;;;;;;;5103401;28;1870;-64
2022/07/03 07:06:12;;;;;;;;;;;;;;;;;;5103666;28;1199;-64
2022/07/03 07:08:37;;;;;;;;;;;;;;;;;;5103345;28;798;-64
2022/07/03 07:11:02;;;;;;;;;;;;;;;;;;5102315;28;1562;-62
2022/07/03 07:13:27;;;;;;;;;;;;;;;;;;5103174;28;996;-61
2022/07/03 07:15:52;;;;;;;;;;;;;;;;;;5103591;28;893;-61
2022/07/03 07:18:18;;;;;;;;;;;;;;;;;;5103098;28;1250;-63
2022/07/03 07:20:43;;;;;;;;;;;;;;;;;;5103521;28;912;-64
2022/07/03 07:23:08;;;;;;;;;;;;;;;;;;5103368;28;873;-63
2022/07/03 07:25:33;;;;;;;;;;;;;;;;;;5103170;28;1893;-63
2022/07/03 07:27:59;;;;;;;;;;;;;;;;;;5103307;28;1172;-63
2022/07/03 07:30:24;;;;;;;;;;;;;;;;;;5103142;28;889;-63
2022/07/03 07:32:49;;;;;;;;;;;;;;;;;;5103266;28;929;-62
2022/07/03 07:35:14;;;;;;;;;;;;;;;;;;5102911;28;933;-62
2022/07/03 07:37:39;;;;;;;;;;;;;;;;;;5102973;28;1183;-63
2022/07/03 07:40:05;;;;;;;;;;;;;;;;;;5101734;28;881;-63
2022/07/03 07:42:30;;;;;;;;;;;;;;;;;;5103059;28;944;-63
2022/07/03 07:44:55;;;;;;;;;;;;;;;;;;5102903;28;1980;-63
2022/07/03 07:47:20;;;;;;;;;;;;;;;;;;5102673;28;1270;-63
2022/07/03 07:49:46;;;;;;;;;;;;;;;;;;5102867;28;802;-63
2022/07/03 07:52:11;;;;;;;;;;;;;;;;;;5102939;28;1004;-63
2022/07/03 07:54:36;;;;;;;;;;;;;;;;;;5102959;28;885;-63
2022/07/03 07:57:01;;;;;;;;;;;;;;;;;;5101173;28;1262;-63
2022/07/03 07:59:27;;;;;;;;;;;;;;;;;;5103120;28;790;-63
2022/07/03 08:07:30;;;;;;;;;;;;;;;;;;5102188;28;1211;-63
2022/07/03 08:09:55;;;;;;;;;;;;;;;;;;5101664;28;1372;-63
2022/07/03 08:12:20;;;;;;;;;;;;;;;;;;5102617;28;885;-63
2022/07/03 08:14:45;;;;;;;;;;;;;;;;;;5101220;28;973;-63
2022/07/03 08:17:11;;;;;;;;;;;;;;;;;;5102061;28;1152;-63
2022/07/03 08:19:36;;;;;;;;;;;;;;;;;;5102577;28;857;-63
2022/07/03 08:22:01;;;;;;;;;;;;;;;;;;5102172;28;926;-63
2022/07/03 08:24:27;;;;;;;;;;;;;;;;;;5102431;28;1898;-62
2022/07/03 08:26:52;;;;;;;;;;;;;;;;;;5101990;28;1163;-63
2022/07/03 08:29:17;;;;;;;;;;;;;;;;;;5102574;28;823;-63
2022/07/03 08:31:42;;;;;;;;;;;;;;;;;;5102366;28;1000;-63
2022/07/03 08:34:12;;;;;;;;;;;;;;;;;;5101851;28;949;-63
2022/07/03 08:36:37;;;;;;;;;;;;;;;;;;5102215;28;1219;-64
2022/07/03 08:39:02;;;;;;;;;;;;;;;;;;5102072;28;956;-63
2022/07/03 08:41:28;;;;;;;;;;;;;;;;;;5102293;28;1066;-64
2022/07/03 08:43:54;;;;;;;;;;;;;;;;;;5101873;28;1894;-63
2022/07/03 08:46:20;;;;;;;;;;;;;;;;;;5101830;28;1269;-63
2022/07/03 08:48:45;;;;;;;;;;;;;;;;;;5102156;28;873;-64
2022/07/03 08:51:10;;;;;;;;;;;;;;;;;;5101733;28;917;-63
2022/07/03 08:53:37;;;;;;;;;;;;;;;;;;5101467;28;857;-63
2022/07/03 08:56:03;;;;;;;;;;;;;;;;;;5101989;28;1282;-63
2022/07/03 08:58:29;;;;;;;;;;;;;;;;;;5102010;28;817;-63
2022/07/03 09:00:55;;;;;;;;;;;;;;;;;;5101838;28;975;-63
2022/07/03 09:03:23;;;;;;;;;;;;;;;;;;5101826;28;810;-63
2022/07/03 09:05:50;;;;;;;;;;;;;;;;;;5101384;28;1956;-63
2022/07/03 09:08:16;;;;;;;;;;;;;;;;;;5101617;28;1247;-63
2022/07/03 09:10:43;;;;;;;;;;;;;;;;;;5101586;28;836;-63
2022/07/03 09:13:10;;;;;;;;;;;;;;;;;;5101757;28;849;-63
2022/07/03 09:15:35;;;;;;;;;;;;;;;;;;5101439;28;846;-63
2022/07/03 09:18:03;;;;;;;;;;;;;;;;;;5101491;28;1112;-63
2022/07/03 09:20:33;;;;;;;;;;;;;;;;;;5100106;28;901;-63
2022/07/03 09:23:11;;;;;;;;;;;;;;;;;;5101952;28;1008;-64
2022/07/03 09:25:49;;;;;;;;;;;;;;;;;;5101289;28;1889;-64
2022/07/03 09:28:15;;;;;;;;;;;;;;;;;;5101346;28;1211;-63
2022/07/03 09:30:55;;;;;;;;;;;;;;;;;;5101325;28;857;-62
2022/07/03 09:33:20;;;;;;;;;;;;;;;;;;5100136;28;1387;-63
2022/07/03 09:35:51;;;;;;;;;;;;;;;;;;5101320;28;920;-62
2022/07/03 09:38:17;;;;;;;;;;;;;;;;;;5101274;28;1343;-63
2022/07/03 09:40:50;;;;;;;;;;;;;;;;;;5101428;28;936;-63
2022/07/03 09:43:21;;;;;;;;;;;;;;;;;;5101129;28;810;-63
2022/07/03 09:45:56;;;;;;;;;;;;;;;;;;5101350;28;1963;-63
2022/07/03 09:48:41;;;;;;;;;;;;;;;;;;5100952;28;1237;-63
2022/07/03 09:51:12;;;;;;;;;;;;;;;;;;5101289;28;824;-63
2022/07/03 09:53:44;;;;;;;;;;;;;;;;;;5100975;28;842;-63
2022/07/03 09:56:09;;;;;;;;;;;;;;;;;;5101053;28;1195;-63
2022/07/03 09:58:34;;;;;;;;;;;;;;;;;;5100856;28;794;-62
2022/07/03 10:01:15;;;;;;;;;;;;;;;;;;5101123;28;996;-63
2022/07/03 10:03:40;;;;;;;;;;;;;;;;;;5102586;28;810;-63
2022/07/03 10:06:05;;;;;;;;;;;;;;;;;;5104532;28;1943;-64
2022/07/03 10:08:30;;;;;;;;;;;;;;;;;;5104278;28;885;-63
2022/07/03 10:10:56;;;;;;;;;;;;;;;;;;5104805;28;904;-63
2022/07/03 10:13:22;;;;;;;;;;;;;;;;;;5104415;28;909;-63
2022/07/03 10:15:47;;;;;;;;;;;;;;;;;;5103306;28;1170;-63
2022/07/03 10:18:13;;;;;;;;;;;;;;;;;;5104382;28;1234;-63
2022/07/03 10:20:40;;;;;;;;;;;;;;;;;;5104270;28;825;-63
2022/07/03 10:23:05;;;;;;;;;;;;;;;;;;5104688;28;865;-62
2022/07/03 10:25:31;;;;;;;;;;;;;;;;;;5104138;28;1889;-62
2022/07/03 10:27:56;;;;;;;;;;;;;;;;;;5103998;28;1258;-62
2022/07/03 10:30:23;;;;;;;;;;;;;;;;;;5104056;28;810;-62
2022/07/03 10:32:49;;;;;;;;;;;;;;;;;;5104384;28;866;-62
2022/07/03 10:35:17;;;;;;;;;;;;;;;;;;5103706;28;892;-62
2022/07/03 10:37:57;;;;;;;;;;;;;;;;;;5104044;28;1203;-63
2022/07/03 10:46:09;;;;;;;;;;;;;;;;;;5103903;28;1976;-63
2022/07/03 10:48:53;;;;;;;;;;;;;;;;;;5103946;28;798;-63
2022/07/03 10:51:18;;;;;;;;;;;;;;;;;;5102563;28;846;-63
2022/07/03 10:53:44;;;;;;;;;;;;;;;;;;5104010;28;960;-63
2022/07/03 10:56:09;;;;;;;;;;;;;;;;;;5103484;28;1175;-63
2022/07/03 10:59:13;;;;;;;;;;;;;;;;;;5104070;28;872;-63
2022/07/03 11:01:38;;;;;;;;;;;;;;;;;;5040741;28;1388;-62
2022/07/03 11:04:03;;;;;;;;;;;;;;;;;;5041267;28;1971;-63
2022/07/03 11:06:44;;;;;;;;;;;;;;;;;;5057804;28;1195;-63
2022/07/03 11:09:09;;;;;;;;;;;;;;;;;;5102511;28;1264;-63
2022/07/03 11:11:59;;;;;;;;;;;;;;;;;;5103434;28;837;-62
2022/07/03 11:14:26;;;;;;;;;;;;;;;;;;5103399;28;810;-63
2022/07/03 11:17:10;;;;;;;;;;;;;;;;;;5101671;28;1262;-63
2022/07/03 11:19:35;;;;;;;;;;;;;;;;;;5103685;28;829;-62
2022/07/03 11:22:03;;;;;;;;;;;;;;;;;;5103257;28;881;-63
2022/07/03 11:24:39;;;;;;;;;;;;;;;;;;5103381;28;1961;-63
2022/07/03 11:27:20;;;;;;;;;;;;;;;;;;5103055;28;1195;-62
2022/07/03 11:29:53;;;;;;;;;;;;;;;;;;5103490;28;817;-63
2022/07/03 11:32:37;;;;;;;;;;;;;;;;;;5103322;28;917;-62
2022/07/03 11:35:02;;;;;;;;;;;;;;;;;;5103269;28;912;-63
2022/07/03 11:37:28;;;;;;;;;;;;;;;;;;5101697;28;1207;-63
2022/07/03 11:39:55;;;;;;;;;;;;;;;;;;5102977;28;826;-62
2022/07/03 11:42:21;;;;;;;;;;;;;;;;;;5103312;28;1011;-62
2022/07/03 11:44:46;;;;;;;;;;;;;;;;;;5102943;28;1906;-62
2022/07/03 11:47:12;;;;;;;;;;;;;;;;;;5102932;28;1202;-62
2022/07/03 11:49:47;;;;;;;;;;;;;;;;;;5102931;28;838;-63
2022/07/03 11:52:12;;;;;;;;;;;;;;;;;;5102833;28;989;-63
2022/07/03 11:54:50;;;;;;;;;;;;;;;;;;5102784;28;940;-63
2022/07/03 11:57:15;;;;;;;;;;;;;;;;;;5101459;28;1211;-63
2022/07/03 11:59:40;;;;;;;;;;;;;;;;;;5102793;28;810;-63
2022/07/03 12:02:06;;;;;;;;;;;;;;;;;;5102735;28;1043;-63
2022/07/03 12:04:31;;;;;;;;;;;;;;;;;;5102638;28;1890;-63
2022/07/03 12:06:57;;;;;;;;;;;;;;;;;;5102395;28;1194;-63
2022/07/03 12:09:29;;;;;;;;;;;;;;;;;;5102799;28;834;-62
2022/07/03 12:11:58;;;;;;;;;;;;;;;;;;5102804;28;806;-62
2022/07/03 12:14:33;;;;;;;;;;;;;;;;;;5102773;28;841;-63
2022/07/03 12:16:58;;;;;;;;;;;;;;;;;;5102165;28;1187;-62
2022/07/03 12:19:23;;;;;;;;;;;;;;;;;;5102582;28;830;-63
2022/07/03 12:21:49;;;;;;;;;;;;;;;;;;5102171;28;985;-63
2022/07/03 12:24:14;;;;;;;;;;;;;;;;;;5102719;28;1947;-63
2022/07/03 12:26:39;;;;;;;;;;;;;;;;;;5101183;28;1214;-63
2022/07/03 12:29:12;;;;;;;;;;;;;;;;;;5102522;28;869;-63
2022/07/03 12:31:41;;;;;;;;;;;;;;;;;;5100699;28;1146;-62
2022/07/03 12:34:06;;;;;;;;;;;;;;;;;;5102265;28;1037;-63
2022/07/03 12:36:31;;;;;;;;;;;;;;;;;;5102244;28;1239;-63
2022/07/03 12:38:57;;;;;;;;;;;;;;;;;;5102322;28;952;-63
2022/07/03 12:41:23;;;;;;;;;;;;;;;;;;5102123;28;818;-63
2022/07/03 12:43:49;;;;;;;;;;;;;;;;;;5102195;28;995;-63
2022/07/03 12:46:18;;;;;;;;;;;;;;;;;;5102025;28;1142;-63
2022/07/03 12:48:44;;;;;;;;;;;;;;;;;;5102070;28;797;-63
2022/07/03 12:51:09;;;;;;;;;;;;;;;;;;5102204;28;912;-63
2022/07/03 12:53:34;;;;;;;;;;;;;;;;;;5102117;28;1043;-63
2022/07/03 12:56:01;;;;;;;;;;;;;;;;;;5102002;28;826;-62
2022/07/03 13:01:30;;;;;;;;;;;;;;;;;;5101817;28;649;-63
2022/07/03 13:03:55;;;;;;;;;;;;;;;;;;5101242;28;1894;-63
2022/07/03 13:06:22;;;;;;;;;;;;;;;;;;5101619;28;1195;-63
2022/07/03 13:08:54;;;;;;;;;;;;;;;;;;5101636;28;920;-63
2022/07/03 13:11:35;;;;;;;;;;;;;;;;;;5101742;28;951;-63
2022/07/03 13:14:05;;;;;;;;;;;;;;;;;;5101661;28;912;-63
2022/07/03 13:16:35;;;;;;;;;;;;;;;;;;5101475;28;1229;-63
2022/07/03 13:19:00;;;;;;;;;;;;;;;;;;5101538;28;846;-63
2022/07/03 13:21:26;;;;;;;;;;;;;;;;;;5101612;28;849;-63
2022/07/03 13:23:51;;;;;;;;;;;;;;;;;;5101553;28;1901;-63
2022/07/03 13:26:16;;;;;;;;;;;;;;;;;;5101175;28;1187;-62
2022/07/03 13:28:41;;;;;;;;;;;;;;;;;;5101642;28;838;-63
2022/07/03 13:31:06;;;;;;;;;;;;;;;;;;5101336;28;786;-63
2022/07/03 13:33:31;;;;;;;;;;;;;;;;;;5100299;28;945;-63
2022/07/03 13:35:57;;;;;;;;;;;;;;;;;;5101205;28;865;-63
2022/07/03 13:38:22;;;;;;;;;;;;;;;;;;5104124;28;1222;-63
2022/07/03 13:40:47;;;;;;;;;;;;;;;;;;5104869;28;933;-63
2022/07/03 13:43:12;;;;;;;;;;;;;;;;;;5103856;28;1405;-63
2022/07/03 13:45:37;;;;;;;;;;;;;;;;;;5104740;28;1922;-63
2022/07/03 13:48:03;;;;;;;;;;;;;;;;;;5104701;28;1266;-63
2022/07/03 13:50:28;;;;;;;;;;;;;;;;;;5105028;28;837;-63
2022/07/03 13:52:54;;;;;;;;;;;;;;;;;;5104830;28;810;-63
2022/07/03 13:55:19;;;;;;;;;;;;;;;;;;5104846;28;807;-63
2022/07/03 13:57:44;;;;;;;;;;;;;;;;;;5104422;28;1190;-63
2022/07/03 14:00:10;;;;;;;;;;;;;;;;;;5105029;28;771;-63
2022/07/03 14:02:37;;;;;;;;;;;;;;;;;;5104613;28;834;-63
2022/07/03 14:05:02;;;;;;;;;;;;;;;;;;5104741;28;1893;-63
2022/07/03 14:07:27;;;;;;;;;;;;;;;;;;5104375;28;1283;-63
2022/07/03 14:09:52;;;;;;;;;;;;;;;;;;5104626;28;1171;-63
2022/07/03 14:12:18;;;;;;;;;;;;;;;;;;5104306;28;992;-63
2022/07/03 14:14:43;;;;;;;;;;;;;;;;;;5104697;28;901;-63
2022/07/03 14:17:08;;;;;;;;;;;;;;;;;;5104029;28;1175;-63
2022/07/03 14:19:33;;;;;;;;;;;;;;;;;;5104609;28;1071;-63
2022/07/03 14:21:58;;;;;;;;;;;;;;;;;;5102859;28;1121;-64
2022/07/03 14:24:24;;;;;;;;;;;;;;;;;;5083868;28;1901;-64
2022/07/03 14:32:29;;;;;;;;;;;;;;;;;;5084393;28;672;-63
2022/07/03 14:34:54;;;;;;;;;;;;;;;;;;5083720;28;884;-63
2022/07/03 14:37:19;;;;;;;;;;;;;;;;;;5083681;28;1273;-63
2022/07/03 14:39:45;;;;;;;;;;;;;;;;;;5083768;28;837;-63
2022/07/03 14:42:10;;;;;;;;;;;;;;;;;;5083811;28;802;-63
2022/07/03 14:44:36;;;;;;;;;;;;;;;;;;5083633;28;1897;-63
2022/07/03 14:47:01;;;;;;;;;;;;;;;;;;5083598;28;1191;-64
2022/07/03 14:49:26;;;;;;;;;;;;;;;;;;5083051;28;861;-63
2022/07/03 14:51:52;;;;;;;;;;;;;;;;;;5083716;28;1008;-63
2022/07/03 14:54:19;;;;;;;;;;;;;;;;;;5083228;28;854;-64
2022/07/03 14:56:50;;;;;;;;;;;;;;;;;;5083318;28;1175;-63
2022/07/03 14:59:16;;;;;;;;;;;;;;;;;;5083622;28;1003;-64
2022/07/03 15:01:45;;;;;;;;;;;;;;;;;;5083545;28;1110;-63
2022/07/03 15:04:19;;;;;;;;;;;;;;;;;;5083333;28;1894;-63
2022/07/03 15:06:46;;;;;;;;;;;;;;;;;;5083169;28;1274;-64
2022/07/03 15:09:15;;;;;;;;;;;;;;;;;;5083580;28;868;-63
2022/07/03 15:14:42;;;;;;;;;;;;;;;;;;5083602;28;652;-63
2022/07/03 15:17:07;;;;;;;;;;;;;;;;;;5082963;28;1222;-63
2022/07/03 15:19:34;;;;;;;;;;;;;;;;;;5083323;28;841;-63
2022/07/03 15:22:00;;;;;;;;;;;;;;;;;;5081723;28;1402;-63
2022/07/03 15:24:27;;;;;;;;;;;;;;;;;;5083104;28;1893;-63
2022/07/03 15:26:53;;;;;;;;;;;;;;;;;;5082461;28;1171;-64
2022/07/03 15:29:18;;;;;;;;;;;;;;;;;;5083459;28;822;-63
2022/07/03 15:31:45;;;;;;;;;;;;;;;;;;5082921;28;877;-63
2022/07/03 15:34:11;;;;;;;;;;;;;;;;;;5081564;28;873;-63
2022/07/03 15:36:48;;;;;;;;;;;;;;;;;;5082558;28;1284;-64
2022/07/03 15:39:18;;;;;;;;;;;;;;;;;;5083010;28;901;-63
2022/07/03 15:41:47;;;;;;;;;;;;;;;;;;5083005;28;887;-63
2022/07/03 15:44:20;;;;;;;;;;;;;;;;;;5082698;28;1905;-63
2022/07/03 15:47:09;;;;;;;;;;;;;;;;;;5082810;28;1195;-63
2022/07/03 15:49:38;;;;;;;;;;;;;;;;;;5082806;28;849;-63
2022/07/03 15:52:06;;;;;;;;;;;;;;;;;;5082747;28;897;-64
2022/07/03 15:54:50;;;;;;;;;;;;;;;;;;5081166;28;1470;-64
2022/07/03 15:57:22;;;;;;;;;;;;;;;;;;5082329;28;1187;-64
2022/07/03 15:59:50;;;;;;;;;;;;;;;;;;5082413;28;822;-64
2022/07/03 16:02:20;;;;;;;;;;;;;;;;;;5081609;28;1008;-64
2022/07/03 16:04:45;;;;;;;;;;;;;;;;;;5082163;28;1905;-63
2022/07/03 16:07:10;;;;;;;;;;;;;;;;;;5082163;28;1268;-63
2022/07/03 16:09:36;;;;;;;;;;;;;;;;;;5082361;28;953;-63
2022/07/03 16:12:01;;;;;;;;;;;;;;;;;;5082432;28;889;-64
2022/07/03 16:14:33;;;;;;;;;;;;;;;;;;5082236;28;829;-63
2022/07/03 16:17:02;;;;;;;;;;;;;;;;;;5081905;28;1270;-64
2022/07/03 16:19:27;;;;;;;;;;;;;;;;;;5082361;28;778;-63
2022/07/03 16:21:53;;;;;;;;;;;;;;;;;;5081014;28;1299;-63
2022/07/03 16:24:22;;;;;;;;;;;;;;;;;;5082282;28;1913;-63
2022/07/03 16:26:47;;;;;;;;;;;;;;;;;;5081990;28;1164;-63
2022/07/03 16:29:12;;;;;;;;;;;;;;;;;;5080983;28;1397;-63
2022/07/03 16:31:40;;;;;;;;;;;;;;;;;;5080583;28;1284;-64
2022/07/03 16:34:14;;;;;;;;;;;;;;;;;;5082176;28;908;-63
2022/07/03 16:36:40;;;;;;;;;;;;;;;;;;5081690;28;1314;-64
2022/07/03 16:39:07;;;;;;;;;;;;;;;;;;5081981;28;1043;-63
2022/07/03 16:41:33;;;;;;;;;;;;;;;;;;5081801;28;849;-64
2022/07/03 16:43:59;;;;;;;;;;;;;;;;;;5082031;28;778;-64
2022/07/03 16:46:26;;;;;;;;;;;;;;;;;;5081425;28;1191;-63
2022/07/03 16:48:52;;;;;;;;;;;;;;;;;;5081994;28;953;-64
2022/07/03 16:51:18;;;;;;;;;;;;;;;;;;5081682;28;802;-63
2022/07/03 16:53:44;;;;;;;;;;;;;;;;;;5081890;28;846;-63
2022/07/03 16:56:12;;;;;;;;;;;;;;;;;;5081419;28;1176;-63
2022/07/03 16:58:38;;;;;;;;;;;;;;;;;;5080178;28;965;-64
2022/07/03 17:01:05;;;;;;;;;;;;;;;;;;5081768;28;1044;-63
2022/07/03 17:03:30;;;;;;;;;;;;;;;;;;5081559;28;812;-63
2022/07/03 17:05:57;;;;;;;;;;;;;;;;;;5081592;28;1894;-63
2022/07/03 17:08:22;;;;;;;;;;;;;;;;;;5081167;28;1180;-63
2022/07/03 17:10:48;;;;;;;;;;;;;;;;;;5081601;28;897;-63
2022/07/03 17:13:16;;;;;;;;;;;;;;;;;;5079897;28;1242;-64
2022/07/03 17:15:42;;;;;;;;;;;;;;;;;;5081688;28;869;-63
2022/07/03 17:18:07;;;;;;;;;;;;;;;;;;5080989;28;1275;-63
2022/07/03 17:20:36;;;;;;;;;;;;;;;;;;5081404;28;846;-63
2022/07/03 17:23:11;;;;;;;;;;;;;;;;;;5081225;28;877;-63
2022/07/03 17:25:40;;;;;;;;;;;;;;;;;;5081133;28;1910;-63
2022/07/03 17:28:05;;;;;;;;;;;;;;;;;;5081123;28;1281;-64
2022/07/03 17:30:36;;;;;;;;;;;;;;;;;;5081263;28;976;-63
2022/07/03 17:33:06;;;;;;;;;;;;;;;;;;5081432;28;869;-63
2022/07/03 17:35:34;;;;;;;;;;;;;;;;;;5080813;28;889;-64
2022/07/03 17:37:59;;;;;;;;;;;;;;;;;;5080956;28;1188;-63
2022/07/03 17:40:25;;;;;;;;;;;;;;;;;;5080868;28;952;-63